createdAt,value
2023-05-05T00:01:56.854Z,6.9
2023-05-05T00:07:49.284Z,6.8
2023-05-05T00:13:40.875Z,6.8
2023-05-05T00:19:33.557Z,6.7
2023-05-05T00:25:25.253Z,6.7
2023-05-05T00:31:20.059Z,6.6
2023-05-05T00:37:12.413Z,6.6
2023-05-05T00:43:03.474Z,6.6
2023-05-05T00:48:55.292Z,6.6
2023-05-05T00:54:47.902Z,6.5
2023-05-05T01:00:39.183Z,6.5
2023-05-05T01:06:30.869Z,6.4
2023-05-05T01:12:37.859Z,6.4
2023-05-05T01:18:29.916Z,6.4
2023-05-05T01:24:21.060Z,6.4
2023-05-05T01:30:12.619Z,6.3
2023-05-05T01:36:03.775Z,6.3
2023-05-05T01:41:40.044Z,6.2
2023-05-05T01:47:31.604Z,6.2
2023-05-05T01:53:08.629Z,6.1
2023-05-05T01:58:59.538Z,6.1
2023-05-05T02:04:52.557Z,6.1
2023-05-05T02:10:44.274Z,6.1
2023-05-05T02:16:35.991Z,6
2023-05-05T02:22:28.177Z,6
2023-05-05T02:28:19.458Z,5.9
2023-05-05T02:34:11.234Z,5.9
2023-05-05T02:40:03.169Z,5.9
2023-05-05T02:45:54.313Z,5.9
2023-05-05T02:51:30.289Z,5.9
2023-05-05T02:57:06.513Z,5.9
2023-05-05T03:02:58.325Z,5.9
2023-05-05T03:08:50.568Z,5.9
2023-05-05T03:14:26.887Z,6
2023-05-05T03:20:20.316Z,6
2023-05-05T03:26:12.009Z,6.1
2023-05-05T03:32:04.536Z,6.1
2023-05-05T03:37:56.836Z,6.1
2023-05-05T03:43:48.238Z,6.2
2023-05-05T03:49:25.586Z,6.2
2023-05-05T03:55:01.238Z,6.3
2023-05-05T04:00:52.485Z,6.3
2023-05-05T04:06:47.092Z,6.4
2023-05-05T04:12:37.963Z,6.5
2023-05-05T04:18:29.235Z,6.6
2023-05-05T04:24:21.167Z,6.7
2023-05-05T04:29:56.817Z,6.8
2023-05-05T04:35:17.219Z,6.9
2023-05-05T04:40:38.896Z,7.1
2023-05-05T04:46:00.417Z,7.3
2023-05-05T04:51:21.502Z,7.6
2023-05-05T04:56:58.088Z,7.9
2023-05-05T05:02:34.615Z,8.2
2023-05-05T05:07:55.462Z,8.4
2023-05-05T05:13:01.466Z,8.7
2023-05-05T05:18:53.768Z,9.3
2023-05-05T05:24:29.229Z,10.1
2023-05-05T05:30:19.873Z,10.8
2023-05-05T05:35:56.460Z,11.4
2023-05-05T05:41:16.153Z,11.9
2023-05-05T05:47:08.130Z,12.6
2023-05-05T05:52:44.909Z,13.2
2023-05-05T05:58:05.259Z,13.8
2023-05-05T06:03:43.741Z,14.4
2023-05-05T06:09:20.315Z,15.1
2023-05-05T06:15:13.938Z,15.8
2023-05-05T06:20:50.670Z,16.7
2023-05-05T06:26:27.061Z,17.8
2023-05-05T06:31:47.469Z,19.3
2023-05-05T06:37:09.193Z,13.4
2023-05-05T06:42:30.243Z,24
2023-05-05T06:47:50.723Z,23.6
2023-05-05T06:52:56.765Z,24.3
2023-05-05T06:58:03.176Z,25.6
2023-05-05T07:03:23.641Z,25.6
2023-05-05T07:08:45.296Z,26.1
2023-05-05T07:14:07.895Z,26.8
2023-05-05T07:19:56.838Z,27.3
2023-05-05T07:25:18.942Z,27.6
2023-05-05T07:30:43.997Z,28.3
2023-05-05T07:36:20.812Z,29.2
2023-05-05T07:41:57.495Z,31
2023-05-05T07:47:38.078Z,32.1
2023-05-05T07:53:31.646Z,33.3
2023-05-05T07:59:08.477Z,34.3
2023-05-05T08:04:32.767Z,35.1
2023-05-05T08:10:09.756Z,36
2023-05-05T08:15:47.041Z,36.9
2023-05-05T08:21:36.650Z,37.9
2023-05-05T08:27:13.722Z,38.7
2023-05-05T08:32:50.311Z,39.5
2023-05-05T08:38:27.649Z,38.9
2023-05-05T08:44:21.286Z,39.2
2023-05-05T08:50:00.086Z,39.1
2023-05-05T08:55:22.571Z,31.3
2023-05-05T09:00:59.166Z,27.6
2023-05-05T09:06:21.248Z,25.8
2023-05-05T09:11:27.405Z,26.8
2023-05-05T09:16:32.404Z,27.3
2023-05-05T09:21:55.239Z,27.5
2023-05-05T09:27:17.578Z,30.1
2023-05-05T09:32:38.686Z,32
2023-05-05T09:38:01.225Z,33.3
2023-05-05T09:43:38.152Z,34.8
2023-05-05T09:49:30.919Z,36.8
2023-05-05T09:54:52.492Z,38.1
2023-05-05T10:00:13.682Z,37.4
2023-05-05T10:05:35.539Z,38.1
2023-05-05T10:11:12.571Z,38.9
2023-05-05T10:16:33.775Z,38.8
2023-05-05T10:22:06.114Z,40.8
2023-05-05T10:27:29.229Z,41.8
2023-05-05T10:33:43.485Z,42.9
2023-05-05T10:39:04.955Z,43.4
2023-05-05T10:44:26.188Z,42.3
2023-05-05T10:49:50.980Z,42.8
2023-05-05T10:55:38.573Z,42.9
2023-05-05T11:01:18.519Z,43.7
2023-05-05T11:06:25.289Z,44.9
2023-05-05T11:12:02.178Z,45.4
2023-05-05T11:17:26.426Z,46
2023-05-05T11:22:48.394Z,45.6
2023-05-05T11:28:09.622Z,46.5
2023-05-05T11:33:35.394Z,46.9
2023-05-05T11:38:59.548Z,46.9
2023-05-05T11:44:41.308Z,46.6
2023-05-05T11:50:03.731Z,47.6
2023-05-05T11:55:43.438Z,48.1
2023-05-05T12:01:04.971Z,48.3
2023-05-05T12:06:31.124Z,48.6
2023-05-05T12:12:08.816Z,48.9
2023-05-05T12:17:16.258Z,49.1
2023-05-05T12:23:08.707Z,49.4
2023-05-05T12:28:46.103Z,48.8
2023-05-05T12:34:09.125Z,49.4
2023-05-05T12:39:30.545Z,49.1
2023-05-05T12:44:52.375Z,49.5
2023-05-05T12:50:32.532Z,49.8
2023-05-05T12:56:24.749Z,49.3
2023-05-05T13:02:04.589Z,49.4
2023-05-05T13:07:41.876Z,49.9
2023-05-05T13:13:36.625Z,50.2
2023-05-05T13:19:29.895Z,50.2
2023-05-05T13:25:45.982Z,50.1
2023-05-05T13:31:25.308Z,50.1
2023-05-05T13:37:18.487Z,50.1
2023-05-05T13:42:55.603Z,49.9
2023-05-05T13:49:03.147Z,49.8
2023-05-05T13:54:40.838Z,49.8
2023-05-05T14:00:35.900Z,49.9
2023-05-05T14:06:32.178Z,49.7
2023-05-05T14:12:25.948Z,49.4
2023-05-05T14:18:03.696Z,49
2023-05-05T14:23:58.250Z,48.6
2023-05-05T14:29:51.015Z,48.3
2023-05-05T14:35:44.984Z,47.8
2023-05-05T14:41:38.820Z,47.3
2023-05-05T14:47:32.707Z,46.9
2023-05-05T14:53:26.271Z,46.3
2023-05-05T14:59:30.515Z,45.8
2023-05-05T15:05:28.309Z,45.5
2023-05-05T15:11:21.072Z,45.2
2023-05-05T15:16:59.929Z,44.9
2023-05-05T15:22:39.257Z,44.3
2023-05-05T15:28:17.668Z,42.6
2023-05-05T15:34:11.270Z,40.7
2023-05-05T15:40:05.414Z,38.7
2023-05-05T15:45:59.871Z,36.2
2023-05-05T15:51:39.404Z,34.3
2023-05-05T15:57:37.360Z,32.7
2023-05-05T16:03:18.326Z,31.3
2023-05-05T16:09:13.875Z,30
2023-05-05T16:15:09.909Z,28.9
2023-05-05T16:20:50.192Z,27.9
2023-05-05T16:26:30.645Z,27
2023-05-05T16:32:11.236Z,26.1
2023-05-05T16:38:07.421Z,25.3
2023-05-05T16:43:48.679Z,24.4
2023-05-05T16:49:43.789Z,23.6
2023-05-05T16:55:08.887Z,22.9
2023-05-05T17:00:50.086Z,22.3
2023-05-05T17:06:15.786Z,21.6
2023-05-05T17:11:56.621Z,21.1
2023-05-05T17:17:54.480Z,20.4
2023-05-05T17:23:52.603Z,19.8
2023-05-05T17:29:51.751Z,19.3
2023-05-05T17:35:49.786Z,18.6
2023-05-05T17:41:48.063Z,17.9
2023-05-05T17:47:46.861Z,17.4
2023-05-05T17:53:44.932Z,16.8
2023-05-05T17:59:43.235Z,16.3
2023-05-05T18:05:43.999Z,15.9
2023-05-05T18:11:42.950Z,15.4
2023-05-05T18:17:41.814Z,15.1
2023-05-05T18:23:40.052Z,14.7
2023-05-05T18:29:50.575Z,14.3
2023-05-05T18:35:51.304Z,14.1
2023-05-05T18:41:49.013Z,13.7
2023-05-05T18:47:48.227Z,13.4
2023-05-05T18:53:47.742Z,13.1
2023-05-05T18:59:46.734Z,12.8
2023-05-05T19:06:00.815Z,12.5
2023-05-05T19:12:21.190Z,12.3
2023-05-05T19:18:20.631Z,11.9
2023-05-05T19:24:21.913Z,11.7
2023-05-05T19:30:20.192Z,11.5
2023-05-05T19:36:20.235Z,11.3
2023-05-05T19:42:18.638Z,11.1
2023-05-05T19:48:16.496Z,10.9
2023-05-05T19:54:15.621Z,10.7
2023-05-05T20:00:13.729Z,10.5
2023-05-05T20:06:13.239Z,10.3
2023-05-05T20:12:11.113Z,10.2
2023-05-05T20:18:11.053Z,10
2023-05-05T20:24:09.557Z,9.8
2023-05-05T20:30:08.059Z,9.6
2023-05-05T20:36:05.900Z,9.4
2023-05-05T20:42:04.200Z,9.2
2023-05-05T20:48:01.662Z,9
2023-05-05T20:54:05.859Z,8.8
2023-05-05T21:00:04.667Z,8.6
2023-05-05T21:06:04.587Z,8.4
2023-05-05T21:12:02.433Z,8.3
2023-05-05T21:18:00.812Z,8.2
2023-05-05T21:23:58.403Z,8.1
2023-05-05T21:29:56.431Z,7.9
2023-05-05T21:36:12.643Z,7.8
2023-05-05T21:42:10.794Z,7.7
2023-05-05T21:48:08.379Z,7.6
2023-05-05T21:54:04.478Z,7.4
2023-05-05T22:00:00.527Z,7.3
2023-05-05T22:05:40.910Z,7.2
2023-05-05T22:11:35.956Z,7.1
2023-05-05T22:17:37.477Z,7
2023-05-05T22:23:32.040Z,6.9
2023-05-05T22:29:26.142Z,6.8
2023-05-05T22:35:22.550Z,6.8
2023-05-05T22:41:01.374Z,6.6
2023-05-05T22:46:55.506Z,6.6
2023-05-05T22:52:33.539Z,6.5
2023-05-05T22:58:27.998Z,6.4
2023-05-05T23:04:22.018Z,6.3
2023-05-05T23:10:15.207Z,6.3
2023-05-05T23:16:08.446Z,6.2
2023-05-05T23:22:09.564Z,6.1
2023-05-05T23:27:46.073Z,6.1
2023-05-05T23:33:23.580Z,6
2023-05-05T23:39:00.152Z,5.9
2023-05-05T23:44:35.946Z,5.8
2023-05-05T23:50:13.701Z,5.8
2023-05-05T23:55:49.662Z,5.6
